メインページ
METAR-TAF:

METAR-TAF

空港 :

ヘルシンキ・ヴァンター国際空港

ヘルシンキ, フィンランド

緯度: 60-19N, 経度: 024-58E, 海抜: 51m

現時点の気象観測

当レポートは31分前の12:20(UTC)に作成
南/南西の風 13kt
気温 17°C
湿度 39%
気圧 1026 hPa
視程10km以上
1,500メートル以下は雲なし、積乱雲なし

METAR: EFHK 221220Z 21013KT CAVOK 17/03 Q1026 NOSIG

時間: 15:51 (12:51 UTC)

予報

当レポートは1時間26分前の11:25(UTC)に作成
予報は22日の 12時(UTC)から 23日の 12時(UTC)まで有効
南西の風 13kt
視程10km以上
1,500メートル以下は雲なし、積乱雲なし
22日の 16時(UTC)から 22日の 18時(UTC)まで徐々に
南西の風 3kt

TAF: EFHK 221125Z 2212/2312 22013KT CAVOK BECMG 2216/2218 22003KT

4,000以上の空港の気象観測と天気予報(METAR報とTAF報)

利用可能な観測所は地図上に黄色い丸と赤い丸で示す。

丸の上にカーソルを重ねると観測所名を参照できる。

次にクリックすると気象観測と天気予報を参照できる。

マップの切り替え:黒色「×」印の緑ボタンをクリックして拡大、「-」印の緑ボタンをクリックして縮小、緑色の三角印をクリックして隣りの地図に切り替え


METAR-TAF: